sensor_id;sensor_type;location;lat;lon;timestamp;temperature;humidity
9828;DHT22;4953;48.952;9.442;2022-08-30T04:00:28;17.50;99.90
9828;DHT22;4953;48.952;9.442;2022-08-30T04:02:54;17.50;99.90
9828;DHT22;4953;48.952;9.442;2022-08-30T04:05:21;17.40;99.90
9828;DHT22;4953;48.952;9.442;2022-08-30T04:07:48;17.40;99.90
9828;DHT22;4953;48.952;9.442;2022-08-30T04:10:15;17.40;99.90
9828;DHT22;4953;48.952;9.442;2022-08-30T04:12:42;17.40;99.90
9828;DHT22;4953;48.952;9.442;2022-08-30T04:15:10;17.40;99.90
9828;DHT22;4953;48.952;9.442;2022-08-30T04:17:38;17.40;99.90
9828;DHT22;4953;48.952;9.442;2022-08-30T04:20:06;17.40;99.90
9828;DHT22;4953;48.952;9.442;2022-08-30T04:22:33;17.40;99.90
9828;DHT22;4953;48.952;9.442;2022-08-30T04:25:01;17.40;99.90
9828;DHT22;4953;48.952;9.442;2022-08-30T04:27:28;17.30;99.90
9828;DHT22;4953;48.952;9.442;2022-08-30T04:29:54;17.30;99.90
9828;DHT22;4953;48.952;9.442;2022-08-30T04:32:21;17.30;99.90
9828;DHT22;4953;48.952;9.442;2022-08-30T04:34:50;17.30;99.90
9828;DHT22;4953;48.952;9.442;2022-08-30T04:37:20;17.30;99.90
9828;DHT22;4953;48.952;9.442;2022-08-30T04:39:47;17.20;99.90
9828;DHT22;4953;48.952;9.442;2022-08-30T04:42:15;17.20;99.90
9828;DHT22;4953;48.952;9.442;2022-08-30T04:44:42;17.10;99.90
9828;DHT22;4953;48.952;9.442;2022-08-30T04:47:09;17.10;99.90
9828;DHT22;4953;48.952;9.442;2022-08-30T04:49:36;17.10;99.90
9828;DHT22;4953;48.952;9.442;2022-08-30T04:52:05;17.10;99.90
9828;DHT22;4953;48.952;9.442;2022-08-30T04:54:33;17.10;99.90
9828;DHT22;4953;48.952;9.442;2022-08-30T04:57:00;17.10;99.90
9828;DHT22;4953;48.952;9.442;2022-08-30T04:59:27;17.00;99.90
9828;DHT22;4953;48.952;9.442;2022-08-30T05:01:54;17.00;99.90
9828;DHT22;4953;48.952;9.442;2022-08-30T05:04:21;17.00;99.90
9828;DHT22;4953;48.952;9.442;2022-08-30T05:06:47;17.00;99.90
9828;DHT22;4953;48.952;9.442;2022-08-30T05:09:16;17.00;99.90
9828;DHT22;4953;48.952;9.442;2022-08-30T05:11:42;17.00;99.90
9828;DHT22;4953;48.952;9.442;2022-08-30T05:14:11;17.00;99.90
9828;DHT22;4953;48.952;9.442;2022-08-30T05:16:38;17.00;99.90
9828;DHT22;4953;48.952;9.442;2022-08-30T05:19:06;17.00;99.90
9828;DHT22;4953;48.952;9.442;2022-08-30T05:21:33;17.00;99.90
9828;DHT22;4953;48.952;9.442;2022-08-30T05:24:00;17.00;99.90
9828;DHT22;4953;48.952;9.442;2022-08-30T05:26:31;17.00;99.90
9828;DHT22;4953;48.952;9.442;2022-08-30T05:28:58;17.00;99.90
9828;DHT22;4953;48.952;9.442;2022-08-30T05:31:26;17.00;99.90
9828;DHT22;4953;48.952;9.442;2022-08-30T05:33:54;17.00;99.90
9828;DHT22;4953;48.952;9.442;2022-08-30T05:36:26;17.00;99.90
9828;DHT22;4953;48.952;9.442;2022-08-30T05:38:54;17.00;99.90
9828;DHT22;4953;48.952;9.442;2022-08-30T05:41:22;17.00;99.90
9828;DHT22;4953;48.952;9.442;2022-08-30T05:43:53;17.00;99.90
9828;DHT22;4953;48.952;9.442;2022-08-30T05:46:20;17.00;99.90
9828;DHT22;4953;48.952;9.442;2022-08-30T05:48:47;17.00;99.90
9828;DHT22;4953;48.952;9.442;2022-08-30T05:51:16;17.10;99.90
9828;DHT22;4953;48.952;9.442;2022-08-30T05:53:44;17.10;99.90
9828;DHT22;4953;48.952;9.442;2022-08-30T05:56:12;17.10;99.90
9828;DHT22;4953;48.952;9.442;2022-08-30T05:58:40;17.10;99.90
9828;DHT22;4953;48.952;9.442;2022-08-30T06:01:17;17.20;99.90
9828;DHT22;4953;48.952;9.442;2022-08-30T06:03:44;17.20;99.90
9828;DHT22;4953;48.952;9.442;2022-08-30T06:06:11;17.20;99.90
9828;DHT22;4953;48.952;9.442;2022-08-30T06:08:38;17.20;99.90
9828;DHT22;4953;48.952;9.442;2022-08-30T06:11:05;17.30;99.90
9828;DHT22;4953;48.952;9.442;2022-08-30T06:13:32;17.40;99.90
9828;DHT22;4953;48.952;9.442;2022-08-30T06:16:00;17.40;99.90
9828;DHT22;4953;48.952;9.442;2022-08-30T06:18:28;17.40;99.90
9828;DHT22;4953;48.952;9.442;2022-08-30T06:20:56;17.40;99.90
9828;DHT22;4953;48.952;9.442;2022-08-30T06:23:23;17.40;99.90
9828;DHT22;4953;48.952;9.442;2022-08-30T06:25:50;17.50;99.90
9828;DHT22;4953;48.952;9.442;2022-08-30T06:28:16;17.50;99.90
9828;DHT22;4953;48.952;9.442;2022-08-30T06:30:43;17.50;99.90
9828;DHT22;4953;48.952;9.442;2022-08-30T06:33:10;17.50;99.90
9828;DHT22;4953;48.952;9.442;2022-08-30T06:35:38;17.60;99.90
9828;DHT22;4953;48.952;9.442;2022-08-30T06:38:05;17.60;99.90
9828;DHT22;4953;48.952;9.442;2022-08-30T06:40:32;17.70;99.90
9828;DHT22;4953;48.952;9.442;2022-08-30T06:42:59;17.70;99.90
9828;DHT22;4953;48.952;9.442;2022-08-30T06:45:26;17.70;99.90
9828;DHT22;4953;48.952;9.442;2022-08-30T06:47:52;17.80;99.90
9828;DHT22;4953;48.952;9.442;2022-08-30T06:50:19;17.80;99.90
9828;DHT22;4953;48.952;9.442;2022-08-30T06:52:48;17.80;99.90
9828;DHT22;4953;48.952;9.442;2022-08-30T06:55:15;17.90;99.90
9828;DHT22;4953;48.952;9.442;2022-08-30T06:57:43;17.90;99.90
9828;DHT22;4953;48.952;9.442;2022-08-30T07:00:14;18.00;99.90
9828;DHT22;4953;48.952;9.442;2022-08-30T07:02:41;18.10;99.90
9828;DHT22;4953;48.952;9.442;2022-08-30T07:05:08;18.10;99.90
9828;DHT22;4953;48.952;9.442;2022-08-30T07:07:36;18.20;99.90
9828;DHT22;4953;48.952;9.442;2022-08-30T07:10:07;18.30;99.90
9828;DHT22;4953;48.952;9.442;2022-08-30T07:12:34;18.40;99.90
9828;DHT22;4953;48.952;9.442;2022-08-30T07:15:02;18.40;99.90
9828;DHT22;4953;48.952;9.442;2022-08-30T07:17:30;18.50;99.90
9828;DHT22;4953;48.952;9.442;2022-08-30T07:20:16;18.60;99.90
9828;DHT22;4953;48.952;9.442;2022-08-30T07:22:43;18.70;99.90
9828;DHT22;4953;48.952;9.442;2022-08-30T07:25:11;18.80;99.90
9828;DHT22;4953;48.952;9.442;2022-08-30T07:27:39;18.90;99.90
9828;DHT22;4953;48.952;9.442;2022-08-30T07:30:07;19.00;99.90
9828;DHT22;4953;48.952;9.442;2022-08-30T07:32:34;19.10;99.90
9828;DHT22;4953;48.952;9.442;2022-08-30T07:35:03;19.20;99.90
9828;DHT22;4953;48.952;9.442;2022-08-30T07:37:30;19.20;99.90
9828;DHT22;4953;48.952;9.442;2022-08-30T07:39:56;19.40;99.90
9828;DHT22;4953;48.952;9.442;2022-08-30T07:42:25;19.50;99.90
9828;DHT22;4953;48.952;9.442;2022-08-30T07:44:52;19.70;99.90
9828;DHT22;4953;48.952;9.442;2022-08-30T07:47:18;19.80;99.90
9828;DHT22;4953;48.952;9.442;2022-08-30T07:49:45;20.00;99.90
9828;DHT22;4953;48.952;9.442;2022-08-30T07:52:12;20.10;99.90
9828;DHT22;4953;48.952;9.442;2022-08-30T07:54:39;20.30;99.90
9828;DHT22;4953;48.952;9.442;2022-08-30T07:57:07;20.40;99.90
9828;DHT22;4953;48.952;9.442;2022-08-30T07:59:35;20.50;99.90
9828;DHT22;4953;48.952;9.442;2022-08-30T08:02:02;20.70;99.90
9828;DHT22;4953;48.952;9.442;2022-08-30T08:04:30;21.00;99.90
9828;DHT22;4953;48.952;9.442;2022-08-30T08:06:58;21.10;99.90
9828;DHT22;4953;48.952;9.442;2022-08-30T08:09:25;21.20;99.90
9828;DHT22;4953;48.952;9.442;2022-08-30T08:11:55;21.20;99.90
9828;DHT22;4953;48.952;9.442;2022-08-30T08:14:22;21.40;99.90
9828;DHT22;4953;48.952;9.442;2022-08-30T08:16:50;21.40;99.90
9828;DHT22;4953;48.952;9.442;2022-08-30T08:19:20;21.50;99.90
9828;DHT22;4953;48.952;9.442;2022-08-30T08:21:47;21.60;99.90
9828;DHT22;4953;48.952;9.442;2022-08-30T08:24:14;21.70;99.90
9828;DHT22;4953;48.952;9.442;2022-08-30T08:26:41;21.80;99.90
9828;DHT22;4953;48.952;9.442;2022-08-30T08:29:09;22.00;99.90
9828;DHT22;4953;48.952;9.442;2022-08-30T08:31:36;22.20;99.90
9828;DHT22;4953;48.952;9.442;2022-08-30T08:34:04;22.30;99.90
9828;DHT22;4953;48.952;9.442;2022-08-30T08:36:32;22.80;99.90
9828;DHT22;4953;48.952;9.442;2022-08-30T08:38:59;23.50;99.90
9828;DHT22;4953;48.952;9.442;2022-08-30T08:41:36;23.50;99.90
9828;DHT22;4953;48.952;9.442;2022-08-30T08:44:11;23.70;99.90
9828;DHT22;4953;48.952;9.442;2022-08-30T08:46:43;23.80;99.90
9828;DHT22;4953;48.952;9.442;2022-08-30T08:49:16;24.10;99.90
9828;DHT22;4953;48.952;9.442;2022-08-30T08:51:43;24.20;99.90
9828;DHT22;4953;48.952;9.442;2022-08-30T08:54:32;24.80;99.90
9828;DHT22;4953;48.952;9.442;2022-08-30T08:57:00;25.50;99.90
9828;DHT22;4953;48.952;9.442;2022-08-30T08:59:27;25.70;99.90
9828;DHT22;4953;48.952;9.442;2022-08-30T09:01:56;25.50;99.90
9828;DHT22;4953;48.952;9.442;2022-08-30T09:04:31;25.90;99.90
9828;DHT22;4953;48.952;9.442;2022-08-30T09:07:02;26.70;99.90
9828;DHT22;4953;48.952;9.442;2022-08-30T09:09:32;27.20;99.90
9828;DHT22;4953;48.952;9.442;2022-08-30T09:12:00;27.30;99.90
9828;DHT22;4953;48.952;9.442;2022-08-30T09:14:32;27.30;99.90
9828;DHT22;4953;48.952;9.442;2022-08-30T09:17:00;27.60;99.90
9828;DHT22;4953;48.952;9.442;2022-08-30T09:19:41;27.70;99.90
9828;DHT22;4953;48.952;9.442;2022-08-30T09:22:15;27.60;99.90
9828;DHT22;4953;48.952;9.442;2022-08-30T09:24:47;27.50;99.90
9828;DHT22;4953;48.952;9.442;2022-08-30T09:27:21;27.70;99.90
9828;DHT22;4953;48.952;9.442;2022-08-30T09:30:09;27.90;99.90
9828;DHT22;4953;48.952;9.442;2022-08-30T09:32:42;28.00;99.90
9828;DHT22;4953;48.952;9.442;2022-08-30T09:35:17;28.00;99.90
9828;DHT22;4953;48.952;9.442;2022-08-30T09:37:46;28.30;99.90
9828;DHT22;4953;48.952;9.442;2022-08-30T09:40:23;28.60;99.90
9828;DHT22;4953;48.952;9.442;2022-08-30T09:43:03;29.30;99.90
9828;DHT22;4953;48.952;9.442;2022-08-30T09:45:33;29.30;99.90
9828;DHT22;4953;48.952;9.442;2022-08-30T09:48:03;29.50;99.90
9828;DHT22;4953;48.952;9.442;2022-08-30T09:50:50;29.80;99.90
9828;DHT22;4953;48.952;9.442;2022-08-30T09:53:24;29.80;99.90
9828;DHT22;4953;48.952;9.442;2022-08-30T09:56:02;30.70;99.90
9828;DHT22;4953;48.952;9.442;2022-08-30T09:58:40;31.40;99.90
9828;DHT22;4953;48.952;9.442;2022-08-30T10:01:13;31.50;99.90
9828;DHT22;4953;48.952;9.442;2022-08-30T10:03:43;31.80;99.90
9828;DHT22;4953;48.952;9.442;2022-08-30T10:06:23;32.30;99.90
9828;DHT22;4953;48.952;9.442;2022-08-30T10:09:00;32.50;99.90
9828;DHT22;4953;48.952;9.442;2022-08-30T10:11:36;32.20;99.90
9828;DHT22;4953;48.952;9.442;2022-08-30T10:14:37;31.80;99.90
9828;DHT22;4953;48.952;9.442;2022-08-30T10:17:10;31.80;99.90
9828;DHT22;4953;48.952;9.442;2022-08-30T10:19:51;31.80;99.90
9828;DHT22;4953;48.952;9.442;2022-08-30T10:22:27;32.50;99.90
9828;DHT22;4953;48.952;9.442;2022-08-30T10:25:02;32.70;99.90
9828;DHT22;4953;48.952;9.442;2022-08-30T10:27:37;32.80;99.90
9828;DHT22;4953;48.952;9.442;2022-08-30T10:30:08;33.10;99.90
9828;DHT22;4953;48.952;9.442;2022-08-30T10:32:40;32.90;99.90
9828;DHT22;4953;48.952;9.442;2022-08-30T10:35:11;32.60;99.90
9828;DHT22;4953;48.952;9.442;2022-08-30T10:37:44;32.50;99.90
9828;DHT22;4953;48.952;9.442;2022-08-30T10:40:15;32.40;99.90
9828;DHT22;4953;48.952;9.442;2022-08-30T10:43:05;32.40;99.90
9828;DHT22;4953;48.952;9.442;2022-08-30T10:45:36;32.40;99.90
9828;DHT22;4953;48.952;9.442;2022-08-30T10:48:10;32.70;99.90
9828;DHT22;4953;48.952;9.442;2022-08-30T10:50:41;33.00;99.90
9828;DHT22;4953;48.952;9.442;2022-08-30T10:53:12;32.90;99.90
9828;DHT22;4953;48.952;9.442;2022-08-30T10:55:44;33.20;99.90
9828;DHT22;4953;48.952;9.442;2022-08-30T10:58:15;33.90;99.90
9828;DHT22;4953;48.952;9.442;2022-08-30T11:00:53;34.20;99.90
9828;DHT22;4953;48.952;9.442;2022-08-30T11:03:45;34.10;99.90
9828;DHT22;4953;48.952;9.442;2022-08-30T11:06:21;33.70;99.90
9828;DHT22;4953;48.952;9.442;2022-08-30T11:09:18;34.60;98.60
9828;DHT22;4953;48.952;9.442;2022-08-30T11:12:02;35.20;98.60
9828;DHT22;4953;48.952;9.442;2022-08-30T11:14:38;35.30;97.00
9828;DHT22;4953;48.952;9.442;2022-08-30T11:17:25;35.40;97.50
9828;DHT22;4953;48.952;9.442;2022-08-30T11:19:54;34.90;98.40
9828;DHT22;4953;48.952;9.442;2022-08-30T11:22:24;34.80;97.40
9828;DHT22;4953;48.952;9.442;2022-08-30T11:25:06;34.50;97.70
9828;DHT22;4953;48.952;9.442;2022-08-30T11:27:43;34.20;98.10
9828;DHT22;4953;48.952;9.442;2022-08-30T11:30:45;33.90;97.80
9828;DHT22;4953;48.952;9.442;2022-08-30T11:33:43;33.60;98.20
9828;DHT22;4953;48.952;9.442;2022-08-30T11:42:36;34.20;96.80
9828;DHT22;4953;48.952;9.442;2022-08-30T11:48:38;35.30;95.50
9828;DHT22;4953;48.952;9.442;2022-08-30T11:51:12;34.70;95.80
9828;DHT22;4953;48.952;9.442;2022-08-30T11:53:53;34.70;94.20
9828;DHT22;4953;48.952;9.442;2022-08-30T11:56:27;34.60;95.00
9828;DHT22;4953;48.952;9.442;2022-08-30T11:59:00;34.30;95.50
9828;DHT22;4953;48.952;9.442;2022-08-30T12:01:33;33.90;95.70
9828;DHT22;4953;48.952;9.442;2022-08-30T12:04:04;33.50;95.60
9828;DHT22;4953;48.952;9.442;2022-08-30T12:06:52;33.30;97.10
9828;DHT22;4953;48.952;9.442;2022-08-30T12:12:58;33.20;95.80
9828;DHT22;4953;48.952;9.442;2022-08-30T12:18:31;32.80;96.70
9828;DHT22;4953;48.952;9.442;2022-08-30T12:21:04;32.80;95.10
9828;DHT22;4953;48.952;9.442;2022-08-30T12:23:40;32.90;96.30
9828;DHT22;4953;48.952;9.442;2022-08-30T12:26:30;32.60;95.90
9828;DHT22;4953;48.952;9.442;2022-08-30T12:29:14;32.30;97.10
9828;DHT22;4953;48.952;9.442;2022-08-30T12:31:44;32.10;97.60
9828;DHT22;4953;48.952;9.442;2022-08-30T12:34:21;32.00;96.90
9828;DHT22;4953;48.952;9.442;2022-08-30T12:36:53;31.90;98.10
9828;DHT22;4953;48.952;9.442;2022-08-30T12:39:22;31.80;97.60
9828;DHT22;4953;48.952;9.442;2022-08-30T12:41:49;31.70;97.70
9828;DHT22;4953;48.952;9.442;2022-08-30T12:44:20;31.60;98.30
9828;DHT22;4953;48.952;9.442;2022-08-30T12:46:50;31.50;97.90
9828;DHT22;4953;48.952;9.442;2022-08-30T12:49:19;31.40;98.60
9828;DHT22;4953;48.952;9.442;2022-08-30T12:51:47;31.60;96.50
9828;DHT22;4953;48.952;9.442;2022-08-30T12:54:18;31.80;96.60
9828;DHT22;4953;48.952;9.442;2022-08-30T12:56:52;31.80;96.90
9828;DHT22;4953;48.952;9.442;2022-08-30T13:02:25;31.40;98.00
9828;DHT22;4953;48.952;9.442;2022-08-30T13:04:55;31.30;99.00
9828;DHT22;4953;48.952;9.442;2022-08-30T13:07:28;31.20;98.80
9828;DHT22;4953;48.952;9.442;2022-08-30T13:10:15;31.00;98.80
9828;DHT22;4953;48.952;9.442;2022-08-30T13:12:57;30.90;98.60
9828;DHT22;4953;48.952;9.442;2022-08-30T13:15:28;30.80;98.40
9828;DHT22;4953;48.952;9.442;2022-08-30T13:18:16;30.70;99.40
9828;DHT22;4953;48.952;9.442;2022-08-30T13:20:45;30.70;99.30
9828;DHT22;4953;48.952;9.442;2022-08-30T13:23:21;30.70;99.20
9828;DHT22;4953;48.952;9.442;2022-08-30T13:25:48;30.50;99.20
9828;DHT22;4953;48.952;9.442;2022-08-30T13:28:15;30.40;99.90
9828;DHT22;4953;48.952;9.442;2022-08-30T13:30:42;30.40;99.90
9828;DHT22;4953;48.952;9.442;2022-08-30T13:33:09;30.30;99.10
9828;DHT22;4953;48.952;9.442;2022-08-30T13:35:36;30.20;99.90
9828;DHT22;4953;48.952;9.442;2022-08-30T13:38:04;30.20;99.90
9828;DHT22;4953;48.952;9.442;2022-08-30T13:40:31;30.10;99.80
9828;DHT22;4953;48.952;9.442;2022-08-30T13:42:58;30.10;99.80
9828;DHT22;4953;48.952;9.442;2022-08-30T13:45:25;30.10;99.90
9828;DHT22;4953;48.952;9.442;2022-08-30T13:47:53;30.10;99.90
9828;DHT22;4953;48.952;9.442;2022-08-30T13:50:20;30.10;99.90
9828;DHT22;4953;48.952;9.442;2022-08-30T13:52:47;30.00;99.90
9828;DHT22;4953;48.952;9.442;2022-08-30T13:55:15;29.90;99.90
9828;DHT22;4953;48.952;9.442;2022-08-30T13:57:42;29.90;99.90
9828;DHT22;4953;48.952;9.442;2022-08-30T14:00:13;29.90;99.90
9828;DHT22;4953;48.952;9.442;2022-08-30T14:02:42;29.90;99.90
9828;DHT22;4953;48.952;9.442;2022-08-30T14:05:09;29.80;99.90
9828;DHT22;4953;48.952;9.442;2022-08-30T14:07:36;29.80;99.90
9828;DHT22;4953;48.952;9.442;2022-08-30T14:10:04;29.90;99.90
9828;DHT22;4953;48.952;9.442;2022-08-30T14:12:32;29.90;99.90
9828;DHT22;4953;48.952;9.442;2022-08-30T14:14:59;29.90;99.90
9828;DHT22;4953;48.952;9.442;2022-08-30T14:17:27;30.00;99.90
9828;DHT22;4953;48.952;9.442;2022-08-30T14:19:57;30.00;99.90
9828;DHT22;4953;48.952;9.442;2022-08-30T14:22:24;30.10;99.90
9828;DHT22;4953;48.952;9.442;2022-08-30T14:24:51;30.00;99.80
9828;DHT22;4953;48.952;9.442;2022-08-30T14:27:18;30.00;99.90
9828;DHT22;4953;48.952;9.442;2022-08-30T14:29:47;29.90;99.90
9828;DHT22;4953;48.952;9.442;2022-08-30T14:32:14;29.90;99.90
9828;DHT22;4953;48.952;9.442;2022-08-30T14:34:41;29.90;99.90
9828;DHT22;4953;48.952;9.442;2022-08-30T14:37:07;29.80;99.90
9828;DHT22;4953;48.952;9.442;2022-08-30T14:39:34;29.80;99.90
9828;DHT22;4953;48.952;9.442;2022-08-30T14:42:01;29.70;99.90
9828;DHT22;4953;48.952;9.442;2022-08-30T14:44:28;29.60;99.90
9828;DHT22;4953;48.952;9.442;2022-08-30T14:46:56;29.60;99.90
9828;DHT22;4953;48.952;9.442;2022-08-30T14:49:24;29.50;99.90
9828;DHT22;4953;48.952;9.442;2022-08-30T14:51:51;29.60;99.90
9828;DHT22;4953;48.952;9.442;2022-08-30T14:54:20;29.70;99.90
9828;DHT22;4953;48.952;9.442;2022-08-30T14:56:48;29.80;99.90
9828;DHT22;4953;48.952;9.442;2022-08-30T14:59:15;30.00;99.90
9828;DHT22;4953;48.952;9.442;2022-08-30T15:01:43;30.10;99.90
9828;DHT22;4953;48.952;9.442;2022-08-30T15:04:13;30.30;99.90
9828;DHT22;4953;48.952;9.442;2022-08-30T15:06:41;30.40;99.90
9828;DHT22;4953;48.952;9.442;2022-08-30T15:09:10;30.50;99.90
9828;DHT22;4953;48.952;9.442;2022-08-30T15:11:37;30.50;99.10
9828;DHT22;4953;48.952;9.442;2022-08-30T15:14:04;30.60;99.40
9828;DHT22;4953;48.952;9.442;2022-08-30T15:16:34;30.60;99.50
9828;DHT22;4953;48.952;9.442;2022-08-30T15:19:01;30.60;98.80
9828;DHT22;4953;48.952;9.442;2022-08-30T15:21:31;30.60;99.90
9828;DHT22;4953;48.952;9.442;2022-08-30T15:24:00;30.70;99.00
9828;DHT22;4953;48.952;9.442;2022-08-30T15:26:28;30.70;98.80
9828;DHT22;4953;48.952;9.442;2022-08-30T15:28:55;30.70;98.20
9828;DHT22;4953;48.952;9.442;2022-08-30T15:31:26;30.80;98.90
9828;DHT22;4953;48.952;9.442;2022-08-30T15:33:53;30.80;98.70
9828;DHT22;4953;48.952;9.442;2022-08-30T15:36:20;30.90;99.90
9828;DHT22;4953;48.952;9.442;2022-08-30T15:38:48;31.10;99.20
9828;DHT22;4953;48.952;9.442;2022-08-30T15:41:17;31.20;99.10
9828;DHT22;4953;48.952;9.442;2022-08-30T15:43:44;31.30;98.60
9828;DHT22;4953;48.952;9.442;2022-08-30T15:46:17;31.40;97.80
9828;DHT22;4953;48.952;9.442;2022-08-30T15:48:46;31.50;97.20
9828;DHT22;4953;48.952;9.442;2022-08-30T15:51:14;31.50;97.20
9828;DHT22;4953;48.952;9.442;2022-08-30T15:53:42;31.40;96.60
9828;DHT22;4953;48.952;9.442;2022-08-30T15:56:10;31.40;97.20
9828;DHT22;4953;48.952;9.442;2022-08-30T15:58:37;31.50;97.40
9828;DHT22;4953;48.952;9.442;2022-08-30T16:01:04;31.50;97.20
9828;DHT22;4953;48.952;9.442;2022-08-30T16:03:31;31.50;96.90
9828;DHT22;4953;48.952;9.442;2022-08-30T16:05:58;31.60;96.50
9828;DHT22;4953;48.952;9.442;2022-08-30T16:08:26;31.60;97.10
9828;DHT22;4953;48.952;9.442;2022-08-30T16:10:53;31.60;96.80
9828;DHT22;4953;48.952;9.442;2022-08-30T16:13:21;31.70;96.80
9828;DHT22;4953;48.952;9.442;2022-08-30T16:15:48;31.70;96.70
9828;DHT22;4953;48.952;9.442;2022-08-30T16:18:15;31.70;96.80
9828;DHT22;4953;48.952;9.442;2022-08-30T16:20:43;31.60;96.30
9828;DHT22;4953;48.952;9.442;2022-08-30T16:23:10;31.50;95.40
9828;DHT22;4953;48.952;9.442;2022-08-30T16:25:37;31.40;95.70
9828;DHT22;4953;48.952;9.442;2022-08-30T16:28:05;31.20;96.00
9828;DHT22;4953;48.952;9.442;2022-08-30T16:30:33;31.20;96.10
9828;DHT22;4953;48.952;9.442;2022-08-30T16:33:00;31.10;96.80
9828;DHT22;4953;48.952;9.442;2022-08-30T16:35:27;31.00;96.20
9828;DHT22;4953;48.952;9.442;2022-08-30T16:37:54;30.90;95.30
9828;DHT22;4953;48.952;9.442;2022-08-30T16:40:20;30.70;95.60
9828;DHT22;4953;48.952;9.442;2022-08-30T16:42:47;30.60;96.20
9828;DHT22;4953;48.952;9.442;2022-08-30T16:45:15;30.40;96.10
9828;DHT22;4953;48.952;9.442;2022-08-30T16:47:43;30.30;96.00
9828;DHT22;4953;48.952;9.442;2022-08-30T16:50:10;30.20;95.50
9828;DHT22;4953;48.952;9.442;2022-08-30T16:52:37;30.10;95.80
9828;DHT22;4953;48.952;9.442;2022-08-30T16:55:05;30.00;95.70
9828;DHT22;4953;48.952;9.442;2022-08-30T16:57:32;29.80;95.20
9828;DHT22;4953;48.952;9.442;2022-08-30T16:59:59;29.70;95.60
9828;DHT22;4953;48.952;9.442;2022-08-30T17:02:26;29.60;95.00
9828;DHT22;4953;48.952;9.442;2022-08-30T17:04:54;29.40;96.30
9828;DHT22;4953;48.952;9.442;2022-08-30T17:07:21;29.30;96.50
9828;DHT22;4953;48.952;9.442;2022-08-30T17:09:50;29.30;96.60
9828;DHT22;4953;48.952;9.442;2022-08-30T17:12:17;29.20;96.70
9828;DHT22;4953;48.952;9.442;2022-08-30T17:14:44;29.00;96.40
9828;DHT22;4953;48.952;9.442;2022-08-30T17:17:10;29.00;96.10
9828;DHT22;4953;48.952;9.442;2022-08-30T17:19:37;28.90;97.30
9828;DHT22;4953;48.952;9.442;2022-08-30T17:22:08;28.70;98.20
9828;DHT22;4953;48.952;9.442;2022-08-30T17:24:35;28.70;99.90
9828;DHT22;4953;48.952;9.442;2022-08-30T17:27:02;28.60;99.90
9828;DHT22;4953;48.952;9.442;2022-08-30T17:29:29;28.50;99.90
9828;DHT22;4953;48.952;9.442;2022-08-30T17:31:56;28.40;99.90
9828;DHT22;4953;48.952;9.442;2022-08-30T17:34:26;28.30;97.90
9828;DHT22;4953;48.952;9.442;2022-08-30T17:36:54;28.10;97.80
9828;DHT22;4953;48.952;9.442;2022-08-30T17:39:25;28.00;99.10
9828;DHT22;4953;48.952;9.442;2022-08-30T17:41:52;27.90;96.90
9828;DHT22;4953;48.952;9.442;2022-08-30T17:44:20;27.90;97.20
9828;DHT22;4953;48.952;9.442;2022-08-30T17:46:48;27.70;97.60
9828;DHT22;4953;48.952;9.442;2022-08-30T17:49:15;27.60;98.10
9828;DHT22;4953;48.952;9.442;2022-08-30T17:51:42;27.50;98.00
9828;DHT22;4953;48.952;9.442;2022-08-30T17:54:10;27.40;98.40
9828;DHT22;4953;48.952;9.442;2022-08-30T17:56:39;27.30;99.30
9828;DHT22;4953;48.952;9.442;2022-08-30T17:59:08;27.30;99.60
9828;DHT22;4953;48.952;9.442;2022-08-30T18:01:35;27.20;99.90
9828;DHT22;4953;48.952;9.442;2022-08-30T18:04:03;27.10;97.70
9828;DHT22;4953;48.952;9.442;2022-08-30T18:06:30;27.00;98.00
9828;DHT22;4953;48.952;9.442;2022-08-30T18:08:57;26.90;97.50
9828;DHT22;4953;48.952;9.442;2022-08-30T18:11:24;26.90;99.80
9828;DHT22;4953;48.952;9.442;2022-08-30T18:13:53;26.80;99.10
9828;DHT22;4953;48.952;9.442;2022-08-30T18:16:19;26.70;99.60
9828;DHT22;4953;48.952;9.442;2022-08-30T18:18:46;26.60;99.60
9828;DHT22;4953;48.952;9.442;2022-08-30T18:21:15;26.50;99.10
9828;DHT22;4953;48.952;9.442;2022-08-30T18:23:43;26.40;99.00
9828;DHT22;4953;48.952;9.442;2022-08-30T18:26:11;26.40;99.70
9828;DHT22;4953;48.952;9.442;2022-08-30T18:28:38;26.40;99.70
9828;DHT22;4953;48.952;9.442;2022-08-30T18:31:06;26.30;99.90
9828;DHT22;4953;48.952;9.442;2022-08-30T18:33:34;26.20;99.90
9828;DHT22;4953;48.952;9.442;2022-08-30T18:36:02;26.20;99.90
9828;DHT22;4953;48.952;9.442;2022-08-30T18:38:30;26.10;99.90
9828;DHT22;4953;48.952;9.442;2022-08-30T18:40:57;26.00;99.90
9828;DHT22;4953;48.952;9.442;2022-08-30T18:43:24;26.00;99.90
9828;DHT22;4953;48.952;9.442;2022-08-30T18:45:51;25.80;99.90
9828;DHT22;4953;48.952;9.442;2022-08-30T18:48:20;25.70;99.90
9828;DHT22;4953;48.952;9.442;2022-08-30T18:50:47;25.70;99.90
9828;DHT22;4953;48.952;9.442;2022-08-30T18:53:14;25.60;99.90
9828;DHT22;4953;48.952;9.442;2022-08-30T18:55:41;25.50;99.90
9828;DHT22;4953;48.952;9.442;2022-08-30T18:58:08;25.50;99.90
9828;DHT22;4953;48.952;9.442;2022-08-30T19:00:35;25.40;99.90
9828;DHT22;4953;48.952;9.442;2022-08-30T19:03:02;25.40;99.90
9828;DHT22;4953;48.952;9.442;2022-08-30T19:05:31;25.30;99.90
9828;DHT22;4953;48.952;9.442;2022-08-30T19:07:59;25.20;99.90
9828;DHT22;4953;48.952;9.442;2022-08-30T19:10:26;25.10;99.90
9828;DHT22;4953;48.952;9.442;2022-08-30T19:12:54;25.10;99.90
9828;DHT22;4953;48.952;9.442;2022-08-30T19:15:24;25.00;99.90
9828;DHT22;4953;48.952;9.442;2022-08-30T19:17:52;25.00;99.90
9828;DHT22;4953;48.952;9.442;2022-08-30T19:20:20;24.90;99.90
9828;DHT22;4953;48.952;9.442;2022-08-30T19:22:49;24.80;99.90
9828;DHT22;4953;48.952;9.442;2022-08-30T19:25:18;24.80;99.90
9828;DHT22;4953;48.952;9.442;2022-08-30T19:27:46;24.70;99.90
9828;DHT22;4953;48.952;9.442;2022-08-30T19:30:16;24.60;99.90
9828;DHT22;4953;48.952;9.442;2022-08-30T19:32:47;24.60;99.90
9828;DHT22;4953;48.952;9.442;2022-08-30T19:35:14;24.50;99.90
9828;DHT22;4953;48.952;9.442;2022-08-30T19:37:42;24.50;99.90
9828;DHT22;4953;48.952;9.442;2022-08-30T19:40:12;24.40;99.90
9828;DHT22;4953;48.952;9.442;2022-08-30T19:42:40;24.30;99.90
9828;DHT22;4953;48.952;9.442;2022-08-30T19:45:08;24.30;99.90
9828;DHT22;4953;48.952;9.442;2022-08-30T19:47:36;24.20;99.90
9828;DHT22;4953;48.952;9.442;2022-08-30T19:50:04;24.20;99.90
9828;DHT22;4953;48.952;9.442;2022-08-30T19:52:31;24.10;99.90
9828;DHT22;4953;48.952;9.442;2022-08-30T19:54:59;24.10;99.90
9828;DHT22;4953;48.952;9.442;2022-08-30T19:57:28;24.10;99.90
9828;DHT22;4953;48.952;9.442;2022-08-30T19:59:55;24.00;99.90
9828;DHT22;4953;48.952;9.442;2022-08-30T20:02:24;24.00;99.90
9828;DHT22;4953;48.952;9.442;2022-08-30T20:04:52;23.90;99.90
9828;DHT22;4953;48.952;9.442;2022-08-30T20:07:19;23.90;99.90
9828;DHT22;4953;48.952;9.442;2022-08-30T20:09:46;23.90;99.90
9828;DHT22;4953;48.952;9.442;2022-08-30T20:12:14;23.80;99.90
9828;DHT22;4953;48.952;9.442;2022-08-30T20:14:43;23.80;99.90
9828;DHT22;4953;48.952;9.442;2022-08-30T20:17:10;23.70;99.90
9828;DHT22;4953;48.952;9.442;2022-08-30T20:19:37;23.60;99.90
9828;DHT22;4953;48.952;9.442;2022-08-30T20:22:04;23.60;99.90
9828;DHT22;4953;48.952;9.442;2022-08-30T20:24:32;23.60;99.90
9828;DHT22;4953;48.952;9.442;2022-08-30T20:26:59;23.50;99.90
9828;DHT22;4953;48.952;9.442;2022-08-30T20:29:26;23.40;99.90
9828;DHT22;4953;48.952;9.442;2022-08-30T20:31:55;23.40;99.90
9828;DHT22;4953;48.952;9.442;2022-08-30T20:34:21;23.30;99.90
9828;DHT22;4953;48.952;9.442;2022-08-30T20:36:52;23.20;99.90